CYYY

Mont Joli Airport

Mont-Joli, Quebec, Canada
METAR CYYY 190000Z 16005KT 15SM BKN030 M13/M16 A3022 RMK SC6 SLP241
Observed Flight Rules
Nov-19 @ 00:00 UTC (an hour ago) Marginal Visual Flight Rules
Wind Visibility Clouds
160° at 5 knots 15 miles
  • Broken at 3,000' AGL
Temperatures Readings
Current -13°C / 9°F
Dewpoint -16°C / 3°F
Humidity 78%
Altimeter 30.22" Hg
Pressure 1024.1 hPa
Elevation 52
METAR CYYY 190000Z 16005KT 15SM BKN030 M13/M16 A3022 RMK SC6 SLP241
Observed Flight Rules
Nov-19 @ 00:00 UTC
(an hour ago)
MVFR
Wind Visibility
160° at 5 knots 15 miles
Clouds
  • Broken at 3,000' AGL
Temperature Dewpoint
-13°C / 9°F -16°C / 3°F
Humidity Altimeter Pressure
78% 30.22" Hg 1024.1 hPa